sensor_id;sensor_type;location;lat;lon;timestamp;P1;durP1;ratioP1;P2;durP2;ratioP2
34924;SDS011;21130;51.728;8.748;2022-12-20T00:00:26;2.83;;;2.33;;
34924;SDS011;21130;51.728;8.748;2022-12-20T00:02:52;2.80;;;2.10;;
34924;SDS011;21130;51.728;8.748;2022-12-20T00:05:19;3.00;;;2.30;;
34924;SDS011;21130;51.728;8.748;2022-12-20T00:07:45;4.00;;;2.30;;
34924;SDS011;21130;51.728;8.748;2022-12-20T00:10:12;2.55;;;2.30;;
34924;SDS011;21130;51.728;8.748;2022-12-20T00:12:38;2.33;;;2.13;;
34924;SDS011;21130;51.728;8.748;2022-12-20T00:15:05;4.68;;;2.22;;
34924;SDS011;21130;51.728;8.748;2022-12-20T00:17:33;2.65;;;1.85;;
34924;SDS011;21130;51.728;8.748;2022-12-20T00:20:00;4.93;;;2.15;;
34924;SDS011;21130;51.728;8.748;2022-12-20T00:22:26;3.50;;;1.98;;
34924;SDS011;21130;51.728;8.748;2022-12-20T00:24:53;4.50;;;2.40;;
34924;SDS011;21130;51.728;8.748;2022-12-20T00:27:20;3.03;;;2.30;;
34924;SDS011;21130;51.728;8.748;2022-12-20T00:29:46;3.08;;;2.38;;
34924;SDS011;21130;51.728;8.748;2022-12-20T00:32:13;2.92;;;2.25;;
34924;SDS011;21130;51.728;8.748;2022-12-20T00:34:41;3.20;;;2.20;;
34924;SDS011;21130;51.728;8.748;2022-12-20T00:37:07;4.00;;;2.55;;
34924;SDS011;21130;51.728;8.748;2022-12-20T00:39:34;2.90;;;1.92;;
34924;SDS011;21130;51.728;8.748;2022-12-20T00:42:00;2.30;;;2.10;;
34924;SDS011;21130;51.728;8.748;2022-12-20T00:44:27;4.47;;;2.40;;
34924;SDS011;21130;51.728;8.748;2022-12-20T00:46:54;2.75;;;1.98;;
34924;SDS011;21130;51.728;8.748;2022-12-20T00:49:20;2.60;;;2.10;;
34924;SDS011;21130;51.728;8.748;2022-12-20T00:51:48;2.22;;;2.03;;
34924;SDS011;21130;51.728;8.748;2022-12-20T00:54:14;2.47;;;2.22;;
34924;SDS011;21130;51.728;8.748;2022-12-20T00:56:41;3.17;;;2.90;;
34924;SDS011;21130;51.728;8.748;2022-12-20T00:59:08;4.95;;;3.45;;
34924;SDS011;21130;51.728;8.748;2022-12-20T01:01:34;6.05;;;4.50;;
34924;SDS011;21130;51.728;8.748;2022-12-20T01:04:01;4.13;;;3.72;;
34924;SDS011;21130;51.728;8.748;2022-12-20T01:06:28;3.22;;;2.25;;
34924;SDS011;21130;51.728;8.748;2022-12-20T01:08:56;2.70;;;2.28;;
34924;SDS011;21130;51.728;8.748;2022-12-20T01:11:24;3.28;;;2.00;;
34924;SDS011;21130;51.728;8.748;2022-12-20T01:13:52;3.40;;;2.00;;
34924;SDS011;21130;51.728;8.748;2022-12-20T01:16:21;2.30;;;2.10;;
34924;SDS011;21130;51.728;8.748;2022-12-20T01:18:50;2.85;;;1.92;;
34924;SDS011;21130;51.728;8.748;2022-12-20T01:21:18;2.08;;;1.73;;
34924;SDS011;21130;51.728;8.748;2022-12-20T01:23:46;2.15;;;1.95;;
34924;SDS011;21130;51.728;8.748;2022-12-20T01:26:15;2.55;;;2.20;;
34924;SDS011;21130;51.728;8.748;2022-12-20T01:28:44;3.33;;;1.98;;
34924;SDS011;21130;51.728;8.748;2022-12-20T01:31:12;4.53;;;2.15;;
34924;SDS011;21130;51.728;8.748;2022-12-20T01:33:40;2.47;;;2.03;;
34924;SDS011;21130;51.728;8.748;2022-12-20T01:36:08;4.05;;;2.20;;
34924;SDS011;21130;51.728;8.748;2022-12-20T01:38:39;2.38;;;2.13;;
34924;SDS011;21130;51.728;8.748;2022-12-20T01:41:07;3.67;;;2.47;;
34924;SDS011;21130;51.728;8.748;2022-12-20T01:43:49;3.53;;;1.95;;
34924;SDS011;21130;51.728;8.748;2022-12-20T01:46:17;3.53;;;2.10;;
34924;SDS011;21130;51.728;8.748;2022-12-20T01:48:46;2.67;;;2.17;;
34924;SDS011;21130;51.728;8.748;2022-12-20T01:51:17;3.63;;;2.17;;
34924;SDS011;21130;51.728;8.748;2022-12-20T01:53:44;2.72;;;2.25;;
34924;SDS011;21130;51.728;8.748;2022-12-20T01:56:12;2.60;;;2.10;;
34924;SDS011;21130;51.728;8.748;2022-12-20T01:58:39;3.83;;;2.03;;
34924;SDS011;21130;51.728;8.748;2022-12-20T02:01:08;2.25;;;1.75;;
34924;SDS011;21130;51.728;8.748;2022-12-20T02:03:35;3.92;;;1.73;;
34924;SDS011;21130;51.728;8.748;2022-12-20T02:06:15;4.25;;;1.67;;
34924;SDS011;21130;51.728;8.748;2022-12-20T02:08:43;3.00;;;1.77;;
34924;SDS011;21130;51.728;8.748;2022-12-20T02:11:14;2.92;;;1.65;;
34924;SDS011;21130;51.728;8.748;2022-12-20T02:13:55;3.42;;;2.13;;
34924;SDS011;21130;51.728;8.748;2022-12-20T02:16:35;3.95;;;2.00;;
34924;SDS011;21130;51.728;8.748;2022-12-20T02:19:19;3.83;;;1.75;;
34924;SDS011;21130;51.728;8.748;2022-12-20T02:22:02;5.93;;;2.00;;
34924;SDS011;21130;51.728;8.748;2022-12-20T02:27:40;3.33;;;1.92;;
34924;SDS011;21130;51.728;8.748;2022-12-20T02:30:14;2.47;;;1.80;;
34924;SDS011;21130;51.728;8.748;2022-12-20T02:32:47;1.55;;;1.45;;
34924;SDS011;21130;51.728;8.748;2022-12-20T02:35:21;1.90;;;1.70;;
34924;SDS011;21130;51.728;8.748;2022-12-20T02:37:49;3.05;;;2.00;;
34924;SDS011;21130;51.728;8.748;2022-12-20T02:40:18;2.47;;;1.80;;
34924;SDS011;21130;51.728;8.748;2022-12-20T02:42:49;3.40;;;1.85;;
34924;SDS011;21130;51.728;8.748;2022-12-20T02:45:21;1.90;;;1.80;;
34924;SDS011;21130;51.728;8.748;2022-12-20T02:47:51;2.58;;;1.60;;
34924;SDS011;21130;51.728;8.748;2022-12-20T02:50:21;2.25;;;2.05;;
34924;SDS011;21130;51.728;8.748;2022-12-20T02:52:51;2.63;;;2.30;;
34924;SDS011;21130;51.728;8.748;2022-12-20T02:55:18;2.30;;;2.10;;
34924;SDS011;21130;51.728;8.748;2022-12-20T02:57:50;3.97;;;2.20;;
34924;SDS011;21130;51.728;8.748;2022-12-20T03:00:25;2.60;;;2.40;;
34924;SDS011;21130;51.728;8.748;2022-12-20T03:02:57;3.78;;;2.53;;
34924;SDS011;21130;51.728;8.748;2022-12-20T03:05:42;2.58;;;2.38;;
34924;SDS011;21130;51.728;8.748;2022-12-20T03:08:11;5.32;;;3.47;;
34924;SDS011;21130;51.728;8.748;2022-12-20T03:10:38;4.32;;;3.50;;
34924;SDS011;21130;51.728;8.748;2022-12-20T03:13:04;3.95;;;3.30;;
34924;SDS011;21130;51.728;8.748;2022-12-20T03:15:32;4.30;;;3.90;;
34924;SDS011;21130;51.728;8.748;2022-12-20T03:17:59;4.75;;;3.65;;
34924;SDS011;21130;51.728;8.748;2022-12-20T03:20:25;4.00;;;3.63;;
34924;SDS011;21130;51.728;8.748;2022-12-20T03:22:52;4.32;;;3.63;;
34924;SDS011;21130;51.728;8.748;2022-12-20T03:25:19;4.88;;;4.20;;
34924;SDS011;21130;51.728;8.748;2022-12-20T03:27:46;7.47;;;6.80;;
34924;SDS011;21130;51.728;8.748;2022-12-20T03:30:13;6.65;;;5.88;;
34924;SDS011;21130;51.728;8.748;2022-12-20T03:32:41;6.03;;;5.25;;
34924;SDS011;21130;51.728;8.748;2022-12-20T03:35:08;6.40;;;5.57;;
34924;SDS011;21130;51.728;8.748;2022-12-20T03:37:34;8.35;;;6.00;;
34924;SDS011;21130;51.728;8.748;2022-12-20T03:40:01;8.02;;;6.57;;
34924;SDS011;21130;51.728;8.748;2022-12-20T03:42:28;8.98;;;7.75;;
34924;SDS011;21130;51.728;8.748;2022-12-20T03:44:55;8.85;;;7.30;;
34924;SDS011;21130;51.728;8.748;2022-12-20T03:47:22;8.60;;;7.63;;
34924;SDS011;21130;51.728;8.748;2022-12-20T03:49:50;9.75;;;8.75;;
34924;SDS011;21130;51.728;8.748;2022-12-20T03:52:16;9.40;;;8.43;;
34924;SDS011;21130;51.728;8.748;2022-12-20T03:54:43;9.80;;;7.47;;
34924;SDS011;21130;51.728;8.748;2022-12-20T03:57:09;8.52;;;7.63;;
34924;SDS011;21130;51.728;8.748;2022-12-20T03:59:36;10.63;;;9.05;;
34924;SDS011;21130;51.728;8.748;2022-12-20T04:02:03;11.43;;;10.23;;
34924;SDS011;21130;51.728;8.748;2022-12-20T04:04:29;10.32;;;9.23;;
34924;SDS011;21130;51.728;8.748;2022-12-20T04:06:57;9.32;;;7.50;;
34924;SDS011;21130;51.728;8.748;2022-12-20T04:09:24;9.00;;;7.88;;
34924;SDS011;21130;51.728;8.748;2022-12-20T04:11:50;8.13;;;6.93;;
34924;SDS011;21130;51.728;8.748;2022-12-20T04:14:17;8.45;;;7.32;;
34924;SDS011;21130;51.728;8.748;2022-12-20T04:16:43;8.80;;;7.90;;
34924;SDS011;21130;51.728;8.748;2022-12-20T04:19:10;6.68;;;5.82;;
34924;SDS011;21130;51.728;8.748;2022-12-20T04:21:37;6.53;;;5.25;;
34924;SDS011;21130;51.728;8.748;2022-12-20T04:24:05;6.50;;;5.78;;
34924;SDS011;21130;51.728;8.748;2022-12-20T04:26:32;5.47;;;4.90;;
34924;SDS011;21130;51.728;8.748;2022-12-20T04:28:58;5.70;;;5.10;;
34924;SDS011;21130;51.728;8.748;2022-12-20T04:31:25;5.20;;;4.70;;
34924;SDS011;21130;51.728;8.748;2022-12-20T04:33:52;5.47;;;4.35;;
34924;SDS011;21130;51.728;8.748;2022-12-20T04:36:18;4.68;;;4.25;;
34924;SDS011;21130;51.728;8.748;2022-12-20T04:38:45;6.13;;;4.65;;
34924;SDS011;21130;51.728;8.748;2022-12-20T04:41:13;7.70;;;5.85;;
34924;SDS011;21130;51.728;8.748;2022-12-20T04:43:46;7.07;;;6.20;;
34924;SDS011;21130;51.728;8.748;2022-12-20T04:46:13;8.52;;;7.03;;
34924;SDS011;21130;51.728;8.748;2022-12-20T04:48:40;7.20;;;6.50;;
34924;SDS011;21130;51.728;8.748;2022-12-20T04:51:07;8.40;;;7.18;;
34924;SDS011;21130;51.728;8.748;2022-12-20T04:53:33;9.13;;;7.55;;
34924;SDS011;21130;51.728;8.748;2022-12-20T04:56:17;12.38;;;8.82;;
34924;SDS011;21130;51.728;8.748;2022-12-20T04:58:47;8.75;;;7.70;;
34924;SDS011;21130;51.728;8.748;2022-12-20T05:01:15;9.98;;;8.82;;
34924;SDS011;21130;51.728;8.748;2022-12-20T05:03:42;11.68;;;9.50;;
34924;SDS011;21130;51.728;8.748;2022-12-20T05:06:09;11.38;;;9.60;;
34924;SDS011;21130;51.728;8.748;2022-12-20T05:08:35;11.13;;;9.90;;
34924;SDS011;21130;51.728;8.748;2022-12-20T05:11:03;10.80;;;9.70;;
34924;SDS011;21130;51.728;8.748;2022-12-20T05:13:32;13.27;;;10.65;;
34924;SDS011;21130;51.728;8.748;2022-12-20T05:15:59;13.73;;;11.35;;
34924;SDS011;21130;51.728;8.748;2022-12-20T05:18:25;13.75;;;11.07;;
34924;SDS011;21130;51.728;8.748;2022-12-20T05:20:53;13.02;;;11.50;;
34924;SDS011;21130;51.728;8.748;2022-12-20T05:23:35;15.18;;;12.30;;
34924;SDS011;21130;51.728;8.748;2022-12-20T05:26:21;14.48;;;12.02;;
34924;SDS011;21130;51.728;8.748;2022-12-20T05:28:50;14.43;;;12.32;;
34924;SDS011;21130;51.728;8.748;2022-12-20T05:31:17;16.02;;;13.43;;
34924;SDS011;21130;51.728;8.748;2022-12-20T05:33:43;16.63;;;13.75;;
34924;SDS011;21130;51.728;8.748;2022-12-20T05:36:10;15.95;;;13.38;;
34924;SDS011;21130;51.728;8.748;2022-12-20T05:38:36;15.30;;;13.68;;
34924;SDS011;21130;51.728;8.748;2022-12-20T05:41:03;16.40;;;13.38;;
34924;SDS011;21130;51.728;8.748;2022-12-20T05:43:30;14.95;;;13.30;;
34924;SDS011;21130;51.728;8.748;2022-12-20T05:45:58;15.23;;;13.30;;
34924;SDS011;21130;51.728;8.748;2022-12-20T05:48:25;17.65;;;13.25;;
34924;SDS011;21130;51.728;8.748;2022-12-20T05:50:51;16.08;;;14.02;;
34924;SDS011;21130;51.728;8.748;2022-12-20T05:53:18;17.02;;;14.43;;
34924;SDS011;21130;51.728;8.748;2022-12-20T05:55:46;19.20;;;15.68;;
34924;SDS011;21130;51.728;8.748;2022-12-20T05:58:14;18.45;;;15.52;;
34924;SDS011;21130;51.728;8.748;2022-12-20T06:00:41;19.88;;;15.52;;
34924;SDS011;21130;51.728;8.748;2022-12-20T06:03:10;22.05;;;16.58;;
34924;SDS011;21130;51.728;8.748;2022-12-20T06:05:39;19.55;;;16.52;;
34924;SDS011;21130;51.728;8.748;2022-12-20T06:08:07;20.90;;;17.10;;
34924;SDS011;21130;51.728;8.748;2022-12-20T06:10:34;23.45;;;18.05;;
34924;SDS011;21130;51.728;8.748;2022-12-20T06:13:01;20.20;;;17.10;;
34924;SDS011;21130;51.728;8.748;2022-12-20T06:15:28;23.40;;;18.13;;
34924;SDS011;21130;51.728;8.748;2022-12-20T06:17:55;23.98;;;18.20;;
34924;SDS011;21130;51.728;8.748;2022-12-20T06:20:23;22.88;;;18.45;;
34924;SDS011;21130;51.728;8.748;2022-12-20T06:22:49;34.65;;;26.48;;
34924;SDS011;21130;51.728;8.748;2022-12-20T06:25:16;24.02;;;19.15;;
34924;SDS011;21130;51.728;8.748;2022-12-20T06:27:43;23.75;;;18.98;;
34924;SDS011;21130;51.728;8.748;2022-12-20T06:30:10;27.63;;;20.17;;
34924;SDS011;21130;51.728;8.748;2022-12-20T06:32:37;25.83;;;20.02;;
34924;SDS011;21130;51.728;8.748;2022-12-20T06:35:04;23.83;;;19.50;;
34924;SDS011;21130;51.728;8.748;2022-12-20T06:37:32;26.17;;;20.15;;
34924;SDS011;21130;51.728;8.748;2022-12-20T06:40:00;26.15;;;19.80;;
34924;SDS011;21130;51.728;8.748;2022-12-20T06:42:27;25.30;;;19.95;;
34924;SDS011;21130;51.728;8.748;2022-12-20T06:44:54;23.45;;;19.20;;
34924;SDS011;21130;51.728;8.748;2022-12-20T06:47:20;26.83;;;20.27;;
34924;SDS011;21130;51.728;8.748;2022-12-20T06:49:47;27.85;;;20.98;;
34924;SDS011;21130;51.728;8.748;2022-12-20T06:52:13;24.88;;;20.95;;
34924;SDS011;21130;51.728;8.748;2022-12-20T06:54:41;24.77;;;20.85;;
34924;SDS011;21130;51.728;8.748;2022-12-20T06:57:08;26.35;;;21.02;;
34924;SDS011;21130;51.728;8.748;2022-12-20T06:59:34;26.38;;;20.92;;
34924;SDS011;21130;51.728;8.748;2022-12-20T07:02:01;29.20;;;22.35;;
34924;SDS011;21130;51.728;8.748;2022-12-20T07:04:27;28.45;;;21.58;;
34924;SDS011;21130;51.728;8.748;2022-12-20T07:06:54;27.65;;;21.75;;
34924;SDS011;21130;51.728;8.748;2022-12-20T07:09:21;26.88;;;20.90;;
34924;SDS011;21130;51.728;8.748;2022-12-20T07:11:49;27.55;;;21.63;;
34924;SDS011;21130;51.728;8.748;2022-12-20T07:14:16;25.77;;;21.30;;
34924;SDS011;21130;51.728;8.748;2022-12-20T07:16:42;28.02;;;21.27;;
34924;SDS011;21130;51.728;8.748;2022-12-20T07:19:09;26.05;;;20.90;;
34924;SDS011;21130;51.728;8.748;2022-12-20T07:21:36;25.45;;;21.40;;
34924;SDS011;21130;51.728;8.748;2022-12-20T07:24:02;24.52;;;19.95;;
34924;SDS011;21130;51.728;8.748;2022-12-20T07:26:30;25.27;;;19.15;;
34924;SDS011;21130;51.728;8.748;2022-12-20T07:28:58;22.83;;;19.17;;
34924;SDS011;21130;51.728;8.748;2022-12-20T07:31:24;19.88;;;17.52;;
34924;SDS011;21130;51.728;8.748;2022-12-20T07:33:51;21.25;;;16.90;;
34924;SDS011;21130;51.728;8.748;2022-12-20T07:36:17;22.70;;;17.98;;
34924;SDS011;21130;51.728;8.748;2022-12-20T07:38:44;21.15;;;16.77;;
34924;SDS011;21130;51.728;8.748;2022-12-20T07:41:11;17.27;;;15.45;;
34924;SDS011;21130;51.728;8.748;2022-12-20T07:43:39;19.58;;;15.25;;
34924;SDS011;21130;51.728;8.748;2022-12-20T07:46:07;19.08;;;15.38;;
34924;SDS011;21130;51.728;8.748;2022-12-20T07:48:35;18.25;;;14.63;;
34924;SDS011;21130;51.728;8.748;2022-12-20T07:51:04;18.42;;;14.98;;
34924;SDS011;21130;51.728;8.748;2022-12-20T07:53:33;16.95;;;14.20;;
34924;SDS011;21130;51.728;8.748;2022-12-20T07:56:01;19.15;;;14.80;;
34924;SDS011;21130;51.728;8.748;2022-12-20T07:58:30;16.70;;;13.68;;
34924;SDS011;21130;51.728;8.748;2022-12-20T08:00:58;15.45;;;13.85;;
34924;SDS011;21130;51.728;8.748;2022-12-20T08:03:29;15.68;;;13.98;;
34924;SDS011;21130;51.728;8.748;2022-12-20T08:05:58;16.10;;;14.20;;
34924;SDS011;21130;51.728;8.748;2022-12-20T08:08:28;14.90;;;13.18;;
34924;SDS011;21130;51.728;8.748;2022-12-20T08:10:55;17.00;;;13.80;;
34924;SDS011;21130;51.728;8.748;2022-12-20T08:13:21;14.60;;;13.10;;
34924;SDS011;21130;51.728;8.748;2022-12-20T08:15:48;15.88;;;13.18;;
34924;SDS011;21130;51.728;8.748;2022-12-20T08:18:14;16.42;;;13.45;;
34924;SDS011;21130;51.728;8.748;2022-12-20T08:20:42;14.27;;;12.43;;
34924;SDS011;21130;51.728;8.748;2022-12-20T08:23:09;17.13;;;13.98;;
34924;SDS011;21130;51.728;8.748;2022-12-20T08:25:35;14.32;;;12.43;;
34924;SDS011;21130;51.728;8.748;2022-12-20T08:28:03;15.93;;;12.90;;
34924;SDS011;21130;51.728;8.748;2022-12-20T08:30:30;15.27;;;12.38;;
34924;SDS011;21130;51.728;8.748;2022-12-20T08:32:57;14.50;;;11.40;;
34924;SDS011;21130;51.728;8.748;2022-12-20T08:35:23;12.32;;;10.82;;
34924;SDS011;21130;51.728;8.748;2022-12-20T08:37:51;13.07;;;10.18;;
34924;SDS011;21130;51.728;8.748;2022-12-20T08:40:18;12.70;;;10.10;;
34924;SDS011;21130;51.728;8.748;2022-12-20T08:42:45;11.25;;;10.00;;
34924;SDS011;21130;51.728;8.748;2022-12-20T08:45:11;10.80;;;9.40;;
34924;SDS011;21130;51.728;8.748;2022-12-20T08:47:38;10.90;;;9.80;;
34924;SDS011;21130;51.728;8.748;2022-12-20T08:50:05;11.10;;;9.90;;
34924;SDS011;21130;51.728;8.748;2022-12-20T08:52:32;11.55;;;10.15;;
34924;SDS011;21130;51.728;8.748;2022-12-20T08:55:00;11.30;;;9.43;;
34924;SDS011;21130;51.728;8.748;2022-12-20T08:57:27;12.13;;;10.65;;
34924;SDS011;21130;51.728;8.748;2022-12-20T08:59:53;14.70;;;10.07;;
34924;SDS011;21130;51.728;8.748;2022-12-20T09:02:20;11.23;;;10.07;;
34924;SDS011;21130;51.728;8.748;2022-12-20T09:04:46;12.80;;;11.05;;
34924;SDS011;21130;51.728;8.748;2022-12-20T09:07:13;14.93;;;11.73;;
34924;SDS011;21130;51.728;8.748;2022-12-20T09:09:39;12.35;;;11.02;;
34924;SDS011;21130;51.728;8.748;2022-12-20T09:12:07;13.43;;;12.00;;
34924;SDS011;21130;51.728;8.748;2022-12-20T09:14:33;15.10;;;12.70;;
34924;SDS011;21130;51.728;8.748;2022-12-20T09:17:00;14.90;;;11.88;;
34924;SDS011;21130;51.728;8.748;2022-12-20T09:19:26;14.38;;;12.57;;
34924;SDS011;21130;51.728;8.748;2022-12-20T09:21:53;14.93;;;12.82;;
34924;SDS011;21130;51.728;8.748;2022-12-20T09:24:20;15.40;;;13.88;;
34924;SDS011;21130;51.728;8.748;2022-12-20T09:26:46;15.38;;;13.35;;
34924;SDS011;21130;51.728;8.748;2022-12-20T09:29:14;15.57;;;13.48;;
34924;SDS011;21130;51.728;8.748;2022-12-20T09:31:41;16.05;;;14.45;;
34924;SDS011;21130;51.728;8.748;2022-12-20T09:34:07;16.42;;;14.60;;
34924;SDS011;21130;51.728;8.748;2022-12-20T09:36:34;22.05;;;18.02;;
34924;SDS011;21130;51.728;8.748;2022-12-20T09:39:02;23.90;;;21.17;;
34924;SDS011;21130;51.728;8.748;2022-12-20T09:41:30;29.45;;;23.58;;
34924;SDS011;21130;51.728;8.748;2022-12-20T09:44:03;35.17;;;25.42;;
34924;SDS011;21130;51.728;8.748;2022-12-20T09:46:34;30.02;;;23.85;;
34924;SDS011;21130;51.728;8.748;2022-12-20T09:49:01;21.33;;;19.23;;
34924;SDS011;21130;51.728;8.748;2022-12-20T09:51:31;16.92;;;12.93;;
34924;SDS011;21130;51.728;8.748;2022-12-20T09:54:10;15.98;;;13.13;;
34924;SDS011;21130;51.728;8.748;2022-12-20T09:56:46;16.30;;;13.00;;
34924;SDS011;21130;51.728;8.748;2022-12-20T09:59:22;15.52;;;13.23;;
34924;SDS011;21130;51.728;8.748;2022-12-20T10:01:50;15.98;;;13.77;;
34924;SDS011;21130;51.728;8.748;2022-12-20T10:04:19;17.30;;;13.55;;
34924;SDS011;21130;51.728;8.748;2022-12-20T10:06:51;15.38;;;13.23;;
34924;SDS011;21130;51.728;8.748;2022-12-20T10:09:44;26.92;;;22.95;;
34924;SDS011;21130;51.728;8.748;2022-12-20T10:12:26;26.50;;;22.55;;
34924;SDS011;21130;51.728;8.748;2022-12-20T10:15:11;20.00;;;17.92;;
34924;SDS011;21130;51.728;8.748;2022-12-20T10:17:48;35.67;;;24.70;;
34924;SDS011;21130;51.728;8.748;2022-12-20T10:20:27;37.00;;;22.85;;
34924;SDS011;21130;51.728;8.748;2022-12-20T10:23:06;37.85;;;27.92;;
34924;SDS011;21130;51.728;8.748;2022-12-20T10:25:37;27.10;;;20.38;;
34924;SDS011;21130;51.728;8.748;2022-12-20T10:28:09;23.50;;;21.05;;
34924;SDS011;21130;51.728;8.748;2022-12-20T10:30:39;18.90;;;16.92;;
34924;SDS011;21130;51.728;8.748;2022-12-20T10:33:09;14.10;;;12.70;;
34924;SDS011;21130;51.728;8.748;2022-12-20T10:35:41;14.43;;;11.77;;
34924;SDS011;21130;51.728;8.748;2022-12-20T10:38:10;13.77;;;12.07;;
34924;SDS011;21130;51.728;8.748;2022-12-20T10:40:38;13.63;;;11.68;;
34924;SDS011;21130;51.728;8.748;2022-12-20T10:43:12;13.80;;;11.27;;
34924;SDS011;21130;51.728;8.748;2022-12-20T10:45:41;15.48;;;12.20;;
34924;SDS011;21130;51.728;8.748;2022-12-20T10:48:23;13.38;;;11.50;;
34924;SDS011;21130;51.728;8.748;2022-12-20T10:50:55;14.60;;;11.57;;
34924;SDS011;21130;51.728;8.748;2022-12-20T10:53:22;11.80;;;10.55;;
34924;SDS011;21130;51.728;8.748;2022-12-20T10:55:51;14.10;;;11.25;;
34924;SDS011;21130;51.728;8.748;2022-12-20T10:58:20;11.55;;;10.27;;
34924;SDS011;21130;51.728;8.748;2022-12-20T11:01:05;11.40;;;10.20;;
34924;SDS011;21130;51.728;8.748;2022-12-20T11:06:23;9.30;;;7.60;;
34924;SDS011;21130;51.728;8.748;2022-12-20T11:08:51;7.65;;;6.85;;
34924;SDS011;21130;51.728;8.748;2022-12-20T11:11:19;7.93;;;7.00;;
34924;SDS011;21130;51.728;8.748;2022-12-20T11:13:47;7.20;;;5.95;;
34924;SDS011;21130;51.728;8.748;2022-12-20T11:16:21;9.10;;;7.47;;
34924;SDS011;21130;51.728;8.748;2022-12-20T11:18:58;8.45;;;6.43;;
34924;SDS011;21130;51.728;8.748;2022-12-20T11:21:33;8.30;;;6.00;;
34924;SDS011;21130;51.728;8.748;2022-12-20T11:24:09;8.02;;;6.30;;
34924;SDS011;21130;51.728;8.748;2022-12-20T11:26:56;8.60;;;7.22;;
34924;SDS011;21130;51.728;8.748;2022-12-20T11:29:41;8.90;;;6.90;;
34924;SDS011;21130;51.728;8.748;2022-12-20T11:32:22;8.63;;;6.70;;
34924;SDS011;21130;51.728;8.748;2022-12-20T11:35:02;6.88;;;5.50;;
34924;SDS011;21130;51.728;8.748;2022-12-20T11:37:35;7.40;;;5.22;;
34924;SDS011;21130;51.728;8.748;2022-12-20T11:40:14;6.53;;;5.63;;
34924;SDS011;21130;51.728;8.748;2022-12-20T11:42:47;6.30;;;5.63;;
34924;SDS011;21130;51.728;8.748;2022-12-20T11:45:23;6.15;;;4.80;;
34924;SDS011;21130;51.728;8.748;2022-12-20T11:48:02;6.25;;;4.80;;
34924;SDS011;21130;51.728;8.748;2022-12-20T11:53:33;6.38;;;5.60;;
34924;SDS011;21130;51.728;8.748;2022-12-20T11:56:05;10.40;;;7.10;;
34924;SDS011;21130;51.728;8.748;2022-12-20T11:58:40;7.90;;;6.55;;
34924;SDS011;21130;51.728;8.748;2022-12-20T12:01:16;6.80;;;6.10;;
34924;SDS011;21130;51.728;8.748;2022-12-20T12:03:45;9.20;;;7.18;;
34924;SDS011;21130;51.728;8.748;2022-12-20T12:06:27;9.35;;;7.35;;
34924;SDS011;21130;51.728;8.748;2022-12-20T12:08:58;9.98;;;7.47;;
34924;SDS011;21130;51.728;8.748;2022-12-20T12:11:34;11.27;;;10.07;;
34924;SDS011;21130;51.728;8.748;2022-12-20T12:14:04;9.68;;;8.18;;
34924;SDS011;21130;51.728;8.748;2022-12-20T12:16:32;9.85;;;8.27;;
34924;SDS011;21130;51.728;8.748;2022-12-20T12:19:02;7.95;;;7.15;;
34924;SDS011;21130;51.728;8.748;2022-12-20T12:21:35;8.93;;;7.75;;
34924;SDS011;21130;51.728;8.748;2022-12-20T12:24:10;9.18;;;7.10;;
34924;SDS011;21130;51.728;8.748;2022-12-20T12:26:44;8.98;;;6.97;;
34924;SDS011;21130;51.728;8.748;2022-12-20T12:29:12;8.02;;;6.55;;
34924;SDS011;21130;51.728;8.748;2022-12-20T12:31:41;6.22;;;5.57;;
34924;SDS011;21130;51.728;8.748;2022-12-20T12:34:16;7.43;;;6.03;;
34924;SDS011;21130;51.728;8.748;2022-12-20T12:37:07;6.57;;;5.43;;
34924;SDS011;21130;51.728;8.748;2022-12-20T12:39:52;4.20;;;3.80;;
34924;SDS011;21130;51.728;8.748;2022-12-20T12:45:45;6.35;;;3.60;;
34924;SDS011;21130;51.728;8.748;2022-12-20T12:48:14;4.13;;;3.30;;
34924;SDS011;21130;51.728;8.748;2022-12-20T12:50:45;5.25;;;3.20;;
34924;SDS011;21130;51.728;8.748;2022-12-20T12:53:16;4.57;;;3.72;;
34924;SDS011;21130;51.728;8.748;2022-12-20T12:55:46;3.50;;;2.92;;
34924;SDS011;21130;51.728;8.748;2022-12-20T13:00:57;4.50;;;3.40;;
34924;SDS011;21130;51.728;8.748;2022-12-20T13:03:35;5.03;;;3.70;;
34924;SDS011;21130;51.728;8.748;2022-12-20T13:09:40;3.90;;;2.90;;
34924;SDS011;21130;51.728;8.748;2022-12-20T13:15:23;4.10;;;3.30;;
34924;SDS011;21130;51.728;8.748;2022-12-20T13:18:22;4.40;;;3.75;;
34924;SDS011;21130;51.728;8.748;2022-12-20T13:27:12;6.00;;;4.53;;
34924;SDS011;21130;51.728;8.748;2022-12-20T13:29:50;5.70;;;5.00;;
34924;SDS011;21130;51.728;8.748;2022-12-20T13:35:46;6.13;;;4.88;;
34924;SDS011;21130;51.728;8.748;2022-12-20T13:38:37;6.30;;;4.72;;
34924;SDS011;21130;51.728;8.748;2022-12-20T13:41:18;5.70;;;4.28;;
34924;SDS011;21130;51.728;8.748;2022-12-20T13:43:52;5.65;;;3.83;;
34924;SDS011;21130;51.728;8.748;2022-12-20T13:46:21;3.85;;;3.22;;
34924;SDS011;21130;51.728;8.748;2022-12-20T13:48:52;5.53;;;2.75;;
34924;SDS011;21130;51.728;8.748;2022-12-20T13:51:23;5.15;;;3.40;;
34924;SDS011;21130;51.728;8.748;2022-12-20T13:53:51;3.10;;;2.10;;
34924;SDS011;21130;51.728;8.748;2022-12-20T13:59:06;2.25;;;1.95;;
34924;SDS011;21130;51.728;8.748;2022-12-20T14:01:45;2.33;;;1.85;;
34924;SDS011;21130;51.728;8.748;2022-12-20T14:04:13;3.13;;;1.70;;
34924;SDS011;21130;51.728;8.748;2022-12-20T14:06:40;4.50;;;1.90;;
34924;SDS011;21130;51.728;8.748;2022-12-20T14:11:52;2.65;;;1.65;;
34924;SDS011;21130;51.728;8.748;2022-12-20T14:14:20;3.45;;;2.00;;
34924;SDS011;21130;51.728;8.748;2022-12-20T14:16:46;3.13;;;2.00;;
34924;SDS011;21130;51.728;8.748;2022-12-20T14:19:13;2.00;;;1.90;;
34924;SDS011;21130;51.728;8.748;2022-12-20T14:21:41;3.58;;;1.98;;
34924;SDS011;21130;51.728;8.748;2022-12-20T14:24:11;2.90;;;2.05;;
34924;SDS011;21130;51.728;8.748;2022-12-20T14:26:41;3.63;;;2.22;;
34924;SDS011;21130;51.728;8.748;2022-12-20T14:29:10;4.53;;;1.75;;
34924;SDS011;21130;51.728;8.748;2022-12-20T14:31:42;4.47;;;2.00;;
34924;SDS011;21130;51.728;8.748;2022-12-20T14:34:11;4.80;;;2.10;;
34924;SDS011;21130;51.728;8.748;2022-12-20T14:36:41;3.85;;;2.13;;
34924;SDS011;21130;51.728;8.748;2022-12-20T14:39:22;3.38;;;2.05;;
34924;SDS011;21130;51.728;8.748;2022-12-20T14:41:54;3.35;;;1.88;;
34924;SDS011;21130;51.728;8.748;2022-12-20T14:44:22;5.57;;;1.70;;
34924;SDS011;21130;51.728;8.748;2022-12-20T14:46:51;2.95;;;1.88;;
34924;SDS011;21130;51.728;8.748;2022-12-20T14:49:21;5.75;;;2.00;;
34924;SDS011;21130;51.728;8.748;2022-12-20T14:51:50;4.35;;;2.00;;
34924;SDS011;21130;51.728;8.748;2022-12-20T14:54:18;2.78;;;1.92;;
34924;SDS011;21130;51.728;8.748;2022-12-20T14:56:48;2.15;;;1.60;;
34924;SDS011;21130;51.728;8.748;2022-12-20T14:59:16;3.55;;;2.03;;
34924;SDS011;21130;51.728;8.748;2022-12-20T15:01:51;4.30;;;1.80;;
34924;SDS011;21130;51.728;8.748;2022-12-20T15:04:22;3.92;;;1.88;;
34924;SDS011;21130;51.728;8.748;2022-12-20T15:06:50;2.17;;;1.80;;
34924;SDS011;21130;51.728;8.748;2022-12-20T15:09:18;2.55;;;1.80;;
34924;SDS011;21130;51.728;8.748;2022-12-20T15:11:45;2.45;;;1.73;;
34924;SDS011;21130;51.728;8.748;2022-12-20T15:14:18;4.95;;;2.25;;
34924;SDS011;21130;51.728;8.748;2022-12-20T15:16:48;4.18;;;1.95;;
34924;SDS011;21130;51.728;8.748;2022-12-20T15:19:17;3.10;;;2.20;;
34924;SDS011;21130;51.728;8.748;2022-12-20T15:21:44;2.90;;;2.00;;
34924;SDS011;21130;51.728;8.748;2022-12-20T15:24:12;3.58;;;2.10;;
34924;SDS011;21130;51.728;8.748;2022-12-20T15:26:40;4.38;;;2.22;;